createdAt,value
2019-02-05T00:00:45.382Z,4.90
2019-02-05T00:03:16.947Z,5.13
2019-02-05T00:05:45.849Z,5.03
2019-02-05T00:08:14.717Z,5.17
2019-02-05T00:10:43.602Z,5.40
2019-02-05T00:13:12.843Z,5.40
2019-02-05T00:15:41.663Z,6.40
2019-02-05T00:18:10.523Z,5.43
2019-02-05T00:20:39.484Z,5.30
2019-02-05T00:23:08.267Z,6.10
2019-02-05T00:25:37.142Z,7.27
2019-02-05T00:28:06.075Z,7.10
2019-02-05T00:30:35.030Z,6.83
2019-02-05T00:33:04.397Z,6.73
2019-02-05T00:35:33.244Z,6.80
2019-02-05T00:38:02.232Z,6.13
2019-02-05T00:40:31.099Z,6.83
2019-02-05T00:42:59.998Z,7.10
2019-02-05T00:45:28.810Z,7.20
2019-02-05T00:47:57.707Z,7.20
2019-02-05T00:50:26.583Z,7.63
2019-02-05T00:52:55.493Z,7.40
2019-02-05T00:55:24.403Z,7.63
2019-02-05T00:57:53.391Z,7.47
2019-02-05T01:00:25.374Z,7.47
2019-02-05T01:02:54.663Z,7.30
2019-02-05T01:05:23.768Z,7.70
2019-02-05T01:07:52.938Z,7.50
2019-02-05T01:10:22.675Z,7.60
2019-02-05T01:12:51.763Z,7.53
2019-02-05T01:15:21.275Z,7.13
2019-02-05T01:17:50.207Z,7.57
2019-02-05T01:20:19.293Z,8.97
2019-02-05T01:22:48.553Z,8.47
2019-02-05T01:25:17.917Z,8.87
2019-02-05T01:27:47.517Z,9.60
2019-02-05T01:30:21.715Z,9.37
2019-02-05T01:32:50.775Z,9.93
2019-02-05T01:35:19.729Z,9.70
2019-02-05T01:37:48.680Z,10.00
2019-02-05T01:40:19.329Z,9.40
2019-02-05T01:42:48.562Z,10.10
2019-02-05T01:45:18.937Z,10.97
2019-02-05T01:47:47.908Z,10.43
2019-02-05T01:50:19.786Z,10.47
2019-02-05T01:52:48.662Z,10.87
2019-02-05T01:55:18.564Z,11.07
2019-02-05T01:57:47.555Z,11.00
2019-02-05T02:00:30.610Z,10.87
2019-02-05T02:02:58.617Z,10.77
2019-02-05T02:05:27.631Z,10.70
2019-02-05T02:07:56.978Z,11.20
2019-02-05T02:10:27.575Z,11.20
2019-02-05T02:12:56.666Z,11.03
2019-02-05T02:15:25.630Z,11.00
2019-02-05T02:17:54.696Z,11.10
2019-02-05T02:20:23.675Z,11.17
2019-02-05T02:22:52.636Z,11.80
2019-02-05T02:25:21.787Z,11.93
2019-02-05T02:27:51.251Z,11.00
2019-02-05T02:30:29.256Z,11.53
2019-02-05T02:32:58.275Z,11.10
2019-02-05T02:35:27.358Z,11.77
2019-02-05T02:37:56.674Z,12.13
2019-02-05T02:40:25.573Z,12.30
2019-02-05T02:42:54.446Z,12.93
2019-02-05T02:45:23.414Z,12.37
2019-02-05T02:47:52.447Z,12.07
2019-02-05T02:50:21.486Z,12.60
2019-02-05T02:52:51.203Z,13.67
2019-02-05T02:55:20.483Z,12.20
2019-02-05T02:57:49.608Z,13.00
2019-02-05T03:00:19.681Z,13.10
2019-02-05T03:02:49.008Z,12.90
2019-02-05T03:05:20.123Z,12.93
2019-02-05T03:07:49.391Z,13.13
2019-02-05T03:10:20.753Z,13.97
2019-02-05T03:12:49.744Z,13.17
2019-02-05T03:15:18.691Z,13.83
2019-02-05T03:17:47.726Z,13.77
2019-02-05T03:20:17.138Z,14.07
2019-02-05T03:22:46.217Z,14.33
2019-02-05T03:25:17.586Z,14.70
2019-02-05T03:27:46.655Z,14.70
2019-02-05T03:30:17.923Z,15.30
2019-02-05T03:32:46.887Z,15.50
2019-02-05T03:35:16.467Z,15.50
2019-02-05T03:37:45.492Z,15.23
2019-02-05T03:41:06.908Z,15.13
2019-02-05T03:43:37.255Z,15.17
2019-02-05T03:46:11.254Z,16.23
2019-02-05T03:48:41.590Z,17.27
2019-02-05T03:51:38.283Z,16.17
2019-02-05T03:54:45.918Z,16.07
2019-02-05T03:57:37.524Z,16.87
2019-02-05T04:00:39.518Z,17.90
2019-02-05T04:03:48.047Z,17.80
2019-02-05T04:06:31.974Z,18.07
2019-02-05T04:09:26.133Z,17.77
2019-02-05T04:12:20.780Z,19.40
2019-02-05T04:15:15.424Z,18.90
2019-02-05T04:18:14.638Z,19.83
2019-02-05T04:21:16.253Z,20.80
2019-02-05T04:24:15.479Z,21.30
2019-02-05T04:27:20.759Z,22.00
2019-02-05T04:30:40.002Z,21.77
2019-02-05T04:33:54.738Z,22.77
2019-02-05T04:37:04.778Z,22.47
2019-02-05T04:40:05.880Z,22.80
2019-02-05T04:43:31.226Z,24.00
2019-02-05T04:46:20.560Z,23.23
2019-02-05T04:49:21.888Z,22.97
2019-02-05T04:52:26.653Z,22.20
2019-02-05T04:55:36.675Z,23.87
2019-02-05T04:59:04.776Z,24.07
2019-02-05T05:01:44.737Z,23.30
2019-02-05T05:04:26.894Z,24.57
2019-02-05T05:07:52.184Z,24.43
2019-02-05T05:10:21.062Z,25.53
2019-02-05T05:12:49.963Z,25.10
2019-02-05T05:15:18.990Z,26.00
2019-02-05T05:17:47.822Z,26.60
2019-02-05T05:20:16.857Z,27.87
2019-02-05T05:22:46.300Z,27.33
2019-02-05T05:25:15.331Z,27.27
2019-02-05T05:27:44.299Z,27.13
2019-02-05T05:30:16.599Z,27.07
2019-02-05T05:32:45.542Z,28.00
2019-02-05T05:35:14.708Z,28.70
2019-02-05T05:37:43.554Z,27.87
2019-02-05T05:40:12.868Z,27.93
2019-02-05T05:42:41.779Z,30.10
2019-02-05T05:45:13.330Z,29.50
2019-02-05T05:47:42.205Z,30.73
2019-02-05T05:50:13.972Z,30.30
2019-02-05T05:52:42.877Z,29.60
2019-02-05T05:55:12.258Z,31.13
2019-02-05T05:57:41.153Z,31.07
2019-02-05T06:00:16.343Z,31.83
2019-02-05T06:02:45.320Z,31.07
2019-02-05T06:05:15.822Z,30.03
2019-02-05T06:07:44.870Z,32.80
2019-02-05T06:10:15.044Z,31.97
2019-02-05T06:12:44.027Z,33.03
2019-02-05T06:15:13.421Z,32.27
2019-02-05T06:17:42.438Z,32.40
2019-02-05T06:20:14.373Z,31.33
2019-02-05T06:22:43.331Z,33.67
2019-02-05T06:25:12.747Z,31.80
2019-02-05T06:27:41.871Z,32.70
2019-02-05T06:30:12.134Z,31.83
2019-02-05T06:32:41.083Z,33.57
2019-02-05T06:35:10.862Z,33.73
2019-02-05T06:37:39.830Z,32.53
2019-02-05T06:40:10.203Z,34.23
2019-02-05T06:42:39.208Z,32.70
2019-02-05T06:45:10.854Z,33.00
2019-02-05T06:47:39.886Z,35.20
2019-02-05T06:50:10.035Z,34.67
2019-02-05T06:52:39.106Z,32.80
2019-02-05T06:55:08.646Z,34.57
2019-02-05T06:57:37.624Z,33.13
2019-02-05T07:00:10.535Z,32.57
2019-02-05T07:02:39.432Z,34.77
2019-02-05T07:05:09.610Z,33.80
2019-02-05T07:07:38.454Z,34.43
2019-02-05T07:10:10.562Z,33.03
2019-02-05T07:12:39.456Z,34.43
2019-02-05T07:15:08.962Z,32.93
2019-02-05T07:17:48.919Z,34.83
2019-02-05T07:20:09.299Z,34.93
2019-02-05T07:22:38.208Z,34.70
2019-02-05T07:25:09.109Z,35.23
2019-02-05T07:27:38.001Z,34.67
2019-02-05T07:30:09.352Z,33.00
2019-02-05T07:32:38.182Z,33.97
2019-02-05T07:35:07.414Z,35.63
2019-02-05T07:37:36.447Z,32.73
2019-02-05T07:40:07.578Z,33.73
2019-02-05T07:42:36.748Z,32.53
2019-02-05T07:45:07.611Z,34.00
2019-02-05T07:47:36.486Z,34.57
2019-02-05T07:50:07.348Z,32.97
2019-02-05T07:52:36.299Z,33.57
2019-02-05T07:55:05.760Z,34.10
2019-02-05T07:57:34.669Z,32.20
2019-02-05T08:00:05.438Z,31.50
2019-02-05T08:02:34.243Z,31.33
2019-02-05T08:05:03.227Z,31.57
2019-02-05T08:07:32.200Z,32.03
2019-02-05T08:10:01.166Z,31.50
2019-02-05T08:12:30.057Z,30.90
2019-02-05T08:14:58.964Z,30.93
2019-02-05T08:17:27.917Z,29.90
2019-02-05T08:19:57.086Z,29.63
2019-02-05T08:22:25.963Z,30.47
2019-02-05T08:24:54.863Z,28.43
2019-02-05T08:27:23.751Z,28.57
2019-02-05T08:29:52.631Z,29.47
2019-02-05T08:32:21.682Z,29.07
2019-02-05T08:34:50.479Z,28.67
2019-02-05T08:37:19.760Z,29.27
2019-02-05T08:39:48.769Z,29.30
2019-02-05T08:42:17.791Z,28.57
2019-02-05T08:44:46.667Z,27.87
2019-02-05T08:47:15.619Z,26.60
2019-02-05T08:49:44.596Z,27.87
2019-02-05T08:52:13.575Z,28.47
2019-02-05T08:54:42.666Z,27.93
2019-02-05T08:57:11.589Z,27.40
2019-02-05T08:59:40.484Z,27.43
2019-02-05T09:02:09.640Z,26.57
2019-02-05T09:04:38.519Z,26.87
2019-02-05T09:07:07.563Z,27.40
2019-02-05T09:09:36.451Z,26.43
2019-02-05T09:12:05.832Z,26.30
2019-02-05T09:14:34.715Z,25.67
2019-02-05T09:17:03.686Z,24.80
2019-02-05T09:19:32.575Z,26.23
2019-02-05T09:22:01.550Z,25.20
2019-02-05T09:24:30.450Z,26.47
2019-02-05T09:26:59.414Z,23.40
2019-02-05T09:29:33.337Z,24.33
2019-02-05T09:31:58.829Z,24.33
2019-02-05T09:34:27.787Z,24.93
2019-02-05T09:36:56.659Z,26.17
2019-02-05T09:39:25.635Z,24.23
2019-02-05T09:41:54.592Z,25.50
2019-02-05T09:44:24.055Z,25.53
2019-02-05T09:46:53.086Z,26.23
2019-02-05T09:49:21.995Z,25.77
2019-02-05T09:51:50.860Z,25.23
2019-02-05T09:54:19.822Z,25.20
2019-02-05T09:56:48.726Z,25.03
2019-02-05T09:59:17.639Z,24.10
2019-02-05T10:01:46.938Z,24.87
2019-02-05T10:04:15.888Z,24.07
2019-02-05T10:06:44.938Z,24.97
2019-02-05T10:09:13.816Z,25.63
2019-02-05T10:11:42.714Z,25.50
2019-02-05T10:14:11.678Z,24.93
2019-02-05T10:16:40.654Z,24.70
2019-02-05T10:19:10.035Z,25.57
2019-02-05T10:21:38.926Z,24.97
2019-02-05T10:24:07.961Z,26.27
2019-02-05T10:26:37.030Z,25.57
2019-02-05T10:29:06.036Z,25.87
2019-02-05T10:31:35.022Z,26.47
2019-02-05T10:34:04.114Z,25.83
2019-02-05T10:36:33.388Z,24.77
2019-02-05T10:39:02.214Z,26.90
2019-02-05T10:41:31.362Z,25.67
2019-02-05T10:44:00.310Z,23.87
2019-02-05T10:46:29.225Z,21.60
2019-02-05T10:48:58.106Z,23.13
2019-02-05T10:51:27.019Z,22.20
2019-02-05T10:53:55.840Z,21.67
2019-02-05T10:56:24.754Z,21.17
2019-02-05T10:58:53.794Z,21.03
2019-02-05T11:01:22.763Z,19.53
2019-02-05T11:03:51.626Z,19.50
2019-02-05T11:06:20.601Z,17.33
2019-02-05T11:08:49.569Z,17.90
2019-02-05T11:11:18.533Z,17.90
2019-02-05T11:13:47.506Z,17.83
2019-02-05T11:16:16.535Z,18.07
2019-02-05T11:18:45.443Z,17.70
2019-02-05T11:21:14.334Z,17.30
2019-02-05T11:23:43.222Z,17.97
2019-02-05T11:26:12.199Z,16.43
2019-02-05T11:28:41.186Z,18.47
2019-02-05T11:31:10.147Z,18.90
2019-02-05T11:33:39.207Z,17.60
2019-02-05T11:36:08.257Z,17.53
2019-02-05T11:38:37.156Z,17.20
2019-02-05T11:41:06.122Z,17.83
2019-02-05T11:43:35.480Z,18.13
2019-02-05T11:46:04.719Z,17.47
2019-02-05T11:48:33.693Z,18.77
2019-02-05T11:51:02.650Z,18.30
2019-02-05T11:53:31.626Z,17.97
2019-02-05T11:56:00.612Z,18.77
2019-02-05T11:58:29.522Z,18.30
2019-02-05T12:01:04.062Z,18.83
2019-02-05T12:03:33.122Z,18.80
2019-02-05T12:06:02.093Z,19.77
2019-02-05T12:08:31.080Z,19.47
2019-02-05T12:11:00.035Z,19.27
2019-02-05T12:13:28.919Z,19.23
2019-02-05T12:15:57.956Z,19.37
2019-02-05T12:18:27.218Z,19.50
2019-02-05T12:20:56.198Z,19.97
2019-02-05T12:23:25.253Z,18.77
2019-02-05T12:25:54.132Z,19.67
2019-02-05T12:28:23.039Z,20.37
2019-02-05T12:30:52.054Z,19.53
2019-02-05T12:33:21.061Z,18.80
2019-02-05T12:35:50.023Z,20.60
2019-02-05T12:38:19.163Z,19.73
2019-02-05T12:40:48.257Z,20.00
2019-02-05T12:43:17.366Z,19.97
2019-02-05T12:45:46.384Z,19.47
2019-02-05T12:48:15.530Z,20.37
2019-02-05T12:50:44.878Z,19.70
2019-02-05T12:53:13.961Z,19.40
2019-02-05T12:55:42.955Z,19.53
2019-02-05T12:58:11.916Z,20.03
2019-02-05T13:00:43.123Z,19.53
2019-02-05T13:03:12.659Z,20.90
2019-02-05T13:05:42.843Z,20.67
2019-02-05T13:08:11.771Z,20.83
2019-02-05T13:10:44.525Z,20.10
2019-02-05T13:13:13.616Z,20.50
2019-02-05T13:15:42.674Z,20.00
2019-02-05T13:18:11.621Z,19.77
2019-02-05T13:20:41.047Z,19.57
2019-02-05T13:23:10.543Z,19.77
2019-02-05T13:25:39.842Z,20.17
2019-02-05T13:28:10.914Z,20.67
2019-02-05T13:30:40.072Z,19.20
2019-02-05T13:33:09.217Z,19.60
2019-02-05T13:35:38.806Z,19.83
2019-02-05T13:38:07.879Z,18.60
2019-02-05T13:40:38.339Z,19.37
2019-02-05T13:43:07.826Z,19.07
2019-02-05T13:45:37.378Z,18.20
2019-02-05T13:48:07.424Z,18.07
2019-02-05T13:50:36.690Z,19.77
2019-02-05T13:53:06.663Z,19.10
2019-02-05T13:55:40.702Z,20.23
2019-02-05T13:58:10.183Z,19.63
2019-02-05T14:00:41.502Z,18.93
2019-02-05T14:03:11.273Z,19.93
2019-02-05T14:05:40.353Z,19.87
2019-02-05T14:08:09.628Z,20.20
2019-02-05T14:10:39.017Z,20.43
2019-02-05T14:13:08.244Z,18.93
2019-02-05T14:15:38.875Z,17.90
2019-02-05T14:18:08.986Z,19.33
2019-02-05T14:20:38.055Z,20.03
2019-02-05T14:23:07.071Z,18.80
2019-02-05T14:25:36.059Z,18.47
2019-02-05T14:28:05.294Z,19.10
2019-02-05T14:30:39.776Z,18.63
2019-02-05T14:33:08.802Z,18.13
2019-02-05T14:35:38.105Z,19.73
2019-02-05T14:38:08.382Z,19.33
2019-02-05T14:40:37.409Z,17.87
2019-02-05T14:43:07.188Z,18.57
2019-02-05T14:45:36.862Z,18.83
2019-02-05T14:48:07.130Z,19.63
2019-02-05T14:50:36.148Z,19.20
2019-02-05T14:53:06.670Z,19.70
2019-02-05T14:55:35.626Z,18.93
2019-02-05T14:58:05.655Z,18.47
2019-02-05T15:00:34.695Z,18.60
2019-02-05T15:03:04.855Z,19.27
2019-02-05T15:05:33.911Z,18.90
2019-02-05T15:08:05.757Z,19.57
2019-02-05T15:10:33.533Z,18.33
2019-02-05T15:13:02.521Z,19.43
2019-02-05T15:15:32.075Z,18.53
2019-02-05T15:18:01.001Z,18.43
2019-02-05T15:20:34.543Z,19.17
2019-02-05T15:23:04.111Z,17.80
2019-02-05T15:25:32.971Z,18.87
2019-02-05T15:28:02.131Z,19.10
2019-02-05T15:30:39.624Z,18.30
2019-02-05T15:33:21.690Z,18.17
2019-02-05T15:35:53.593Z,17.50
2019-02-05T15:38:22.650Z,18.17
2019-02-05T15:40:51.576Z,18.57
2019-02-05T15:43:20.532Z,19.10
2019-02-05T15:45:49.543Z,18.60
2019-02-05T15:48:18.436Z,17.53
2019-02-05T15:50:47.303Z,17.57
2019-02-05T15:53:16.194Z,17.83
2019-02-05T15:55:45.534Z,18.40
2019-02-05T15:58:14.503Z,18.00
2019-02-05T16:00:43.442Z,18.07
2019-02-05T16:03:12.323Z,17.70
2019-02-05T16:05:41.129Z,17.97
2019-02-05T16:08:10.003Z,18.17
2019-02-05T16:10:39.251Z,17.33
2019-02-05T16:13:08.076Z,18.20
2019-02-05T16:15:37.082Z,18.00
2019-02-05T16:18:25.289Z,17.60
2019-02-05T16:20:54.207Z,17.03
2019-02-05T16:23:23.287Z,17.50
2019-02-05T16:25:52.223Z,17.63
2019-02-05T16:28:21.212Z,17.43
2019-02-05T16:30:50.202Z,18.40
2019-02-05T16:33:19.098Z,16.13
2019-02-05T16:35:47.921Z,17.43
2019-02-05T16:38:17.206Z,17.17
2019-02-05T16:40:46.349Z,16.63
2019-02-05T16:43:15.346Z,15.90
2019-02-05T16:45:45.436Z,17.57
2019-02-05T16:48:14.573Z,17.40
2019-02-05T16:50:44.731Z,16.73
2019-02-05T16:53:14.017Z,17.10
2019-02-05T16:55:43.073Z,16.40
2019-02-05T16:58:12.247Z,16.80
2019-02-05T17:00:41.464Z,16.97
2019-02-05T17:03:10.450Z,16.67
2019-02-05T17:05:40.867Z,16.20
2019-02-05T17:08:10.510Z,15.53
2019-02-05T17:10:39.539Z,17.93
2019-02-05T17:13:11.482Z,16.37
2019-02-05T17:15:39.283Z,16.93
2019-02-05T17:18:08.363Z,17.30
2019-02-05T17:20:37.780Z,17.07
2019-02-05T17:23:07.248Z,17.07
2019-02-05T17:25:36.446Z,17.17
2019-02-05T17:28:06.103Z,17.60
2019-02-05T17:30:37.234Z,15.73
2019-02-05T17:33:07.025Z,18.23
2019-02-05T17:35:37.171Z,17.53
2019-02-05T17:38:09.482Z,17.63
2019-02-05T17:40:38.530Z,17.47
2019-02-05T17:43:07.930Z,17.33
2019-02-05T17:45:38.920Z,17.90
2019-02-05T17:48:10.351Z,17.90
2019-02-05T17:50:39.404Z,17.17
2019-02-05T17:53:08.449Z,17.87
2019-02-05T17:55:37.507Z,16.17
2019-02-05T17:58:06.647Z,17.27
2019-02-05T18:00:45.690Z,17.93
2019-02-05T18:03:14.740Z,16.37
2019-02-05T18:05:44.086Z,17.93
2019-02-05T18:08:13.392Z,17.97
2019-02-05T18:10:42.591Z,17.33
2019-02-05T18:13:11.731Z,17.47
2019-02-05T18:15:40.947Z,17.47
2019-02-05T18:18:10.418Z,17.60
2019-02-05T18:20:39.477Z,17.67
2019-02-05T18:23:08.802Z,17.57
2019-02-05T18:25:37.934Z,16.27
2019-02-05T18:28:07.176Z,15.93
2019-02-05T18:30:36.623Z,17.10
2019-02-05T18:33:06.214Z,17.13
2019-02-05T18:35:36.553Z,16.77
2019-02-05T18:38:06.955Z,17.70
2019-02-05T18:40:36.231Z,16.67
2019-02-05T18:43:05.706Z,17.23
2019-02-05T18:45:34.735Z,16.93
2019-02-05T18:48:03.706Z,17.03
2019-02-05T18:50:33.091Z,16.03
2019-02-05T18:53:02.480Z,16.63
2019-02-05T18:55:32.134Z,16.63
2019-02-05T18:58:08.947Z,15.87
2019-02-05T19:00:38.694Z,15.93
2019-02-05T19:03:14.878Z,16.13
2019-02-05T19:05:38.246Z,15.93
2019-02-05T19:08:07.968Z,15.90
2019-02-05T19:10:37.070Z,15.80
2019-02-05T19:13:06.551Z,16.33
2019-02-05T19:15:54.604Z,15.67
2019-02-05T19:18:23.642Z,15.80
2019-02-05T19:20:52.567Z,15.07
2019-02-05T19:23:21.560Z,15.67
2019-02-05T19:26:11.759Z,16.13
2019-02-05T19:28:41.588Z,16.50
2019-02-05T19:31:19.717Z,16.03
2019-02-05T19:33:48.575Z,15.03
2019-02-05T19:36:17.442Z,15.53
2019-02-05T19:38:46.835Z,15.93
2019-02-05T19:41:15.806Z,15.47
2019-02-05T19:43:44.776Z,16.10
2019-02-05T19:46:39.348Z,16.30
2019-02-05T19:49:21.715Z,16.20
2019-02-05T19:51:50.477Z,15.77
2019-02-05T19:54:20.026Z,16.13
2019-02-05T19:56:49.006Z,17.40
2019-02-05T19:59:18.599Z,16.57
2019-02-05T20:01:47.773Z,17.50
2019-02-05T20:04:16.868Z,16.73
2019-02-05T20:06:46.189Z,15.83
2019-02-05T20:09:15.451Z,17.00
2019-02-05T20:11:44.367Z,17.00
2019-02-05T20:14:15.096Z,17.70
2019-02-05T20:16:47.003Z,18.80
2019-02-05T20:19:17.124Z,18.80
2019-02-05T20:21:46.360Z,18.53
2019-02-05T20:24:15.835Z,17.17
2019-02-05T20:26:47.547Z,18.77
2019-02-05T20:29:16.779Z,17.20
2019-02-05T20:31:46.322Z,17.40
2019-02-05T20:34:15.702Z,17.60
2019-02-05T20:36:45.971Z,17.57
2019-02-05T20:39:17.020Z,18.83
2019-02-05T20:41:45.992Z,19.57
2019-02-05T20:44:15.173Z,19.40
2019-02-05T20:46:44.215Z,18.73
2019-02-05T20:49:14.096Z,17.40
2019-02-05T20:51:44.002Z,18.03
2019-02-05T20:54:19.418Z,17.57
2019-02-05T20:56:49.487Z,17.03
2019-02-05T20:59:19.376Z,18.00
2019-02-05T21:01:48.413Z,18.17
2019-02-05T21:04:17.612Z,17.23
2019-02-05T21:06:47.076Z,18.53
2019-02-05T21:09:20.507Z,17.13
2019-02-05T21:11:50.351Z,17.70
2019-02-05T21:14:20.117Z,19.20
2019-02-05T21:16:49.671Z,18.20
2019-02-05T21:19:19.630Z,19.60
2019-02-05T21:21:49.200Z,19.73
2019-02-05T21:24:18.728Z,19.50
2019-02-05T21:26:48.188Z,19.67
2019-02-05T21:29:17.530Z,19.40
2019-02-05T21:31:46.471Z,19.80
2019-02-05T21:34:16.223Z,19.30
2019-02-05T21:36:45.621Z,20.40
2019-02-05T21:39:15.243Z,20.40
2019-02-05T21:41:44.872Z,19.93
2019-02-05T21:44:13.952Z,20.63
2019-02-05T21:46:43.400Z,20.67
2019-02-05T21:49:12.791Z,22.87
2019-02-05T21:51:42.463Z,22.13
2019-02-05T21:54:12.626Z,22.53
2019-02-05T21:56:42.802Z,22.20
2019-02-05T21:59:11.905Z,21.43
2019-02-05T22:01:41.102Z,22.07
2019-02-05T22:04:10.335Z,21.77
2019-02-05T22:06:39.620Z,23.13
2019-02-05T22:09:11.874Z,24.63
2019-02-05T22:11:41.450Z,25.07
2019-02-05T22:14:10.567Z,24.93
2019-02-05T22:16:39.763Z,24.80
2019-02-05T22:19:09.685Z,24.53
2019-02-05T22:21:39.710Z,26.53
2019-02-05T22:24:09.168Z,26.80
2019-02-05T22:26:38.450Z,28.33
2019-02-05T22:29:08.299Z,27.63
2019-02-05T22:31:38.319Z,28.80
2019-02-05T22:34:09.454Z,28.80
2019-02-05T22:36:38.808Z,29.37
2019-02-05T22:39:10.436Z,29.70
2019-02-05T22:41:39.707Z,29.50
2019-02-05T22:44:08.826Z,29.80
2019-02-05T22:46:37.947Z,29.23
2019-02-05T22:49:07.577Z,30.43
2019-02-05T22:51:37.147Z,30.33
2019-02-05T22:54:06.582Z,30.93
2019-02-05T22:56:36.072Z,29.67
2019-02-05T22:59:05.731Z,31.50
2019-02-05T23:01:54.552Z,32.47
2019-02-05T23:05:16.209Z,32.03
2019-02-05T23:07:45.813Z,33.30
2019-02-05T23:11:03.725Z,33.67
2019-02-05T23:13:33.864Z,34.63
2019-02-05T23:16:03.121Z,33.70
2019-02-05T23:18:32.173Z,33.53
2019-02-05T23:21:01.176Z,31.90
2019-02-05T23:23:30.226Z,30.77
2019-02-05T23:25:59.186Z,29.53
2019-02-05T23:28:28.021Z,31.10
2019-02-05T23:30:56.889Z,31.10
2019-02-05T23:33:25.856Z,30.23
2019-02-05T23:35:54.727Z,31.63
2019-02-05T23:38:29.497Z,31.10
2019-02-05T23:40:54.090Z,31.33
2019-02-05T23:43:23.062Z,31.23
2019-02-05T23:46:01.309Z,30.67
2019-02-05T23:48:22.949Z,31.07
2019-02-05T23:50:51.804Z,30.97
2019-02-05T23:53:20.785Z,32.10
2019-02-05T23:55:49.734Z,32.13
2019-02-05T23:58:18.564Z,32.90
